TimeMDT,TemperatureF,Dew PointF,Humidity,Sea Level PressureIn,VisibilityMPH,Wind Direction,Wind SpeedMPH,Gust SpeedMPH,PrecipitationIn,Events,Conditions,WindDirDegrees,DateUTC
12:53 AM,36.0,34.0,93,29.81,10.0,Calm,Calm,-,0.00,,Overcast,0,2012-10-05 06:53:00
1:08 AM,35.6,33.8,93,30.22,10.0,SSW,4.6,-,N/A,,Overcast,200,2012-10-05 07:08:00
1:21 AM,35.6,33.8,93,30.22,10.0,Calm,Calm,-,N/A,,Overcast,0,2012-10-05 07:21:00
1:29 AM,35.6,33.8,93,30.22,10.0,Calm,Calm,-,N/A,,Overcast,0,2012-10-05 07:29:00
1:53 AM,36.0,34.0,93,29.82,10.0,Calm,Calm,-,N/A,,Overcast,0,2012-10-05 07:53:00
2:18 AM,35.6,33.8,93,30.19,10.0,Calm,Calm,-,0.00,,Overcast,0,2012-10-05 08:18:00
2:53 AM,35.1,34.0,96,29.80,10.0,SSE,4.6,-,0.00,,Overcast,150,2012-10-05 08:53:00
3:44 AM,35.6,33.8,93,30.18,8.0,NE,5.8,-,0.01,Rain,Light Rain,40,2012-10-05 09:44:00
3:53 AM,36.0,33.1,89,29.83,10.0,Calm,Calm,-,0.02,Rain,Light Rain,0,2012-10-05 09:53:00
4:04 AM,35.6,33.8,93,30.16,10.0,Calm,Calm,-,0.00,,Overcast,0,2012-10-05 10:04:00
4:53 AM,37.0,32.0,82,29.78,9.0,South,8.1,-,0.00,Snow,Light Snow,170,2012-10-05 10:53:00
5:18 AM,35.6,33.8,93,30.18,9.0,NW,9.2,-,0.01,Rain,Light Rain,320,2012-10-05 11:18:00
5:43 AM,33.8,33.8,100,30.19,10.0,North,11.5,-,0.01,Rain,Light Rain,10,2012-10-05 11:43:00
5:53 AM,34.0,33.1,96,29.85,10.0,NNE,10.4,-,0.01,Rain,Light Rain,20,2012-10-05 11:53:00
6:53 AM,37.0,28.0,70,29.81,10.0,NW,13.8,19.6,N/A,,Overcast,310,2012-10-05 12:53:00
7:53 AM,37.9,15.1,39,29.85,10.0,WNW,17.3,25.3,N/A,,Overcast,300,2012-10-05 13:53:00
8:53 AM,39.9,12.0,32,29.86,10.0,WNW,17.3,27.6,N/A,,Overcast,290,2012-10-05 14:53:00
9:53 AM,42.1,12.0,29,29.86,10.0,WNW,13.8,24.2,N/A,,Partly Cloudy,290,2012-10-05 15:53:00
10:53 AM,44.1,10.9,26,29.88,10.0,West,13.8,27.6,N/A,,Clear,270,2012-10-05 16:53:00
11:53 AM,46.0,9.0,22,29.86,10.0,WSW,16.1,31.1,N/A,,Clear,250,2012-10-05 17:53:00
12:53 PM,46.9,7.0,20,29.84,10.0,West,13.8,25.3,N/A,,Clear,270,2012-10-05 18:53:00
1:53 PM,50.0,7.0,18,29.81,10.0,WNW,18.4,32.2,N/A,,Clear,300,2012-10-05 19:53:00
2:53 PM,48.9,10.0,21,29.82,10.0,NW,12.7,29.9,N/A,,Clear,320,2012-10-05 20:53:00
3:53 PM,48.0,7.0,19,29.82,10.0,WNW,21.9,27.6,N/A,,Clear,290,2012-10-05 21:53:00
4:53 PM,48.9,8.1,19,29.80,10.0,NW,11.5,19.6,N/A,,Clear,320,2012-10-05 22:53:00
5:53 PM,46.0,9.0,22,29.83,10.0,NW,10.4,-,N/A,,Clear,320,2012-10-05 23:53:00
6:53 PM,45.0,9.0,23,29.83,10.0,WNW,13.8,21.9,N/A,,Scattered Clouds,300,2012-10-06 00:53:00
7:53 PM,43.0,8.1,24,29.83,10.0,WNW,9.2,18.4,N/A,,Clear,300,2012-10-06 01:53:00
8:53 PM,42.1,7.0,24,29.84,10.0,WNW,13.8,20.7,N/A,,Clear,300,2012-10-06 02:53:00
9:53 PM,41.0,7.0,25,29.81,10.0,NW,6.9,-,N/A,,Partly Cloudy,320,2012-10-06 03:53:00
10:53 PM,39.0,9.0,29,29.79,10.0,SSW,4.6,-,N/A,,Clear,200,2012-10-06 04:53:00
11:53 PM,30.0,21.0,69,29.86,10.0,SE,3.5,-,N/A,,Clear,140,2012-10-06 05:53:00